createdAt,value
2023-03-07T00:00:53.353Z,-12
2023-03-07T00:01:59.625Z,-12
2023-03-07T00:03:04.922Z,-12
2023-03-07T00:04:10.208Z,-14
2023-03-07T00:05:16.496Z,-13
2023-03-07T00:06:22.847Z,-12
2023-03-07T00:07:29.079Z,-12
2023-03-07T00:08:35.325Z,-11
2023-03-07T00:09:41.596Z,-13
2023-03-07T00:10:47.924Z,-12
2023-03-07T00:11:54.118Z,-14
2023-03-07T00:13:00.388Z,-13
2023-03-07T00:14:06.672Z,-13
2023-03-07T00:15:12.932Z,-12
2023-03-07T00:16:19.217Z,-13
2023-03-07T00:17:25.473Z,-12
2023-03-07T00:18:30.768Z,-12
2023-03-07T00:19:37.033Z,-13
2023-03-07T00:20:43.308Z,-13
2023-03-07T00:21:49.592Z,-12
2023-03-07T00:22:55.856Z,-13
2023-03-07T00:24:02.154Z,-14
2023-03-07T00:25:08.392Z,-11
2023-03-07T00:26:13.698Z,-12
2023-03-07T00:27:18.997Z,-12
2023-03-07T00:28:24.293Z,-12
2023-03-07T00:29:29.570Z,-12
2023-03-07T00:30:35.845Z,-12
2023-03-07T00:31:42.133Z,-12
2023-03-07T00:32:48.389Z,-13
2023-03-07T00:33:54.668Z,-12
2023-03-07T00:35:00.935Z,-12
2023-03-07T00:36:07.224Z,-12
2023-03-07T00:37:13.493Z,-12
2023-03-07T00:38:19.759Z,-12
2023-03-07T00:39:26.027Z,-15
2023-03-07T00:40:32.296Z,-12
2023-03-07T00:41:38.580Z,-12
2023-03-07T00:42:44.927Z,-13
2023-03-07T00:43:51.109Z,-12
2023-03-07T00:44:56.404Z,-13
2023-03-07T00:46:02.677Z,-12
2023-03-07T00:47:08.953Z,-12
2023-03-07T00:48:15.225Z,-12
2023-03-07T00:49:21.493Z,-13
2023-03-07T00:50:27.804Z,-14
2023-03-07T00:51:33.165Z,-12
2023-03-07T00:52:38.402Z,-14
2023-03-07T00:53:44.626Z,-12
2023-03-07T00:54:50.907Z,-12
2023-03-07T00:55:57.177Z,-12
2023-03-07T00:57:03.443Z,-13
2023-03-07T00:58:09.728Z,-13
2023-03-07T00:59:15.989Z,-12
2023-03-07T01:00:22.259Z,-12
2023-03-07T01:01:28.537Z,-13
2023-03-07T01:02:34.806Z,-12
2023-03-07T01:03:41.081Z,-12
2023-03-07T01:04:47.354Z,-12
2023-03-07T01:05:53.619Z,-12
2023-03-07T01:06:59.892Z,-12
2023-03-07T01:08:05.186Z,-12
2023-03-07T01:09:11.457Z,-12
2023-03-07T01:10:17.753Z,-12
2023-03-07T01:11:23.993Z,-13
2023-03-07T01:12:30.270Z,-13
2023-03-07T01:13:36.597Z,-13
2023-03-07T01:14:41.851Z,-13
2023-03-07T01:15:47.123Z,-13
2023-03-07T01:16:53.402Z,-13
2023-03-07T01:17:59.679Z,-12
2023-03-07T01:19:04.973Z,-13
2023-03-07T01:20:10.252Z,-13
2023-03-07T01:21:16.550Z,-13
2023-03-07T01:22:21.844Z,-14
2023-03-07T01:23:27.124Z,-13
2023-03-07T01:24:33.388Z,-13
2023-03-07T01:25:39.702Z,-15
2023-03-07T01:26:45.996Z,-12
2023-03-07T01:27:52.213Z,-14
2023-03-07T01:28:58.494Z,-12
2023-03-07T01:30:04.768Z,-13
2023-03-07T01:31:11.035Z,-12
2023-03-07T01:32:17.298Z,-13
2023-03-07T01:33:23.570Z,-14
2023-03-07T01:34:29.842Z,-15
2023-03-07T01:35:36.208Z,-13
2023-03-07T01:36:42.396Z,-12
2023-03-07T01:37:47.682Z,-13
2023-03-07T01:38:53.989Z,-13
2023-03-07T01:40:00.237Z,-12
2023-03-07T01:41:06.500Z,-13
2023-03-07T01:42:12.774Z,-13
2023-03-07T01:43:19.038Z,-13
2023-03-07T01:44:25.326Z,-13
2023-03-07T01:45:30.654Z,-13
2023-03-07T01:46:35.921Z,-15
2023-03-07T01:47:41.200Z,-13
2023-03-07T01:48:46.512Z,-13
2023-03-07T01:49:52.766Z,-12
2023-03-07T01:50:59.033Z,-13
2023-03-07T01:52:05.316Z,-12
2023-03-07T01:53:11.580Z,-13
2023-03-07T01:54:17.863Z,-13
2023-03-07T01:55:24.114Z,-13
2023-03-07T01:56:30.387Z,-13
2023-03-07T01:57:36.668Z,-13
2023-03-07T01:58:42.962Z,-12
2023-03-07T01:59:49.204Z,-13
2023-03-07T02:00:55.479Z,-13
2023-03-07T02:02:01.749Z,-14
2023-03-07T02:03:07.045Z,-13
2023-03-07T02:04:13.316Z,-14
2023-03-07T02:05:19.593Z,-14
2023-03-07T02:06:25.851Z,-13
2023-03-07T02:07:32.133Z,-12
2023-03-07T02:08:38.397Z,-13
2023-03-07T02:09:44.674Z,-14
2023-03-07T02:10:49.977Z,-14
2023-03-07T02:11:55.260Z,-14
2023-03-07T02:13:01.536Z,-12
2023-03-07T02:14:07.813Z,-13
2023-03-07T02:15:14.082Z,-12
2023-03-07T02:16:20.350Z,-13
2023-03-07T02:17:26.627Z,-14
2023-03-07T02:18:32.896Z,-12
2023-03-07T02:19:39.185Z,-13
2023-03-07T02:20:45.444Z,-12
2023-03-07T02:21:51.713Z,-13
2023-03-07T02:22:57.983Z,-14
2023-03-07T02:24:04.253Z,-14
2023-03-07T02:25:10.529Z,-13
2023-03-07T02:26:15.829Z,-13
2023-03-07T02:27:22.089Z,-12
2023-03-07T02:28:28.369Z,-13
2023-03-07T02:29:34.625Z,-15
2023-03-07T02:30:40.914Z,-13
2023-03-07T02:31:47.180Z,-13
2023-03-07T02:32:53.458Z,-14
2023-03-07T02:33:58.755Z,-12
2023-03-07T02:35:04.062Z,-13
2023-03-07T02:36:09.342Z,-13
2023-03-07T02:37:14.644Z,-13
2023-03-07T02:38:19.930Z,-12
2023-03-07T02:39:25.243Z,-12
2023-03-07T02:40:31.507Z,-13
2023-03-07T02:41:37.769Z,-14
2023-03-07T02:42:44.037Z,-13
2023-03-07T02:43:50.303Z,-13
2023-03-07T02:44:56.571Z,-13
2023-03-07T02:46:02.853Z,-13
2023-03-07T02:47:09.123Z,-13
2023-03-07T02:48:15.429Z,-12
2023-03-07T02:49:21.664Z,-13
2023-03-07T02:50:27.939Z,-13
2023-03-07T02:51:34.217Z,-12
2023-03-07T02:52:40.481Z,-12
2023-03-07T02:53:45.800Z,-13
2023-03-07T02:54:52.044Z,-13
2023-03-07T02:55:58.321Z,-12
2023-03-07T02:57:04.583Z,-14
2023-03-07T02:58:10.868Z,-13
2023-03-07T02:59:17.137Z,-14
2023-03-07T03:00:23.408Z,-14
2023-03-07T03:01:28.711Z,-14
2023-03-07T03:02:34.015Z,-13
2023-03-07T03:03:40.280Z,-14
2023-03-07T03:04:45.570Z,-15
2023-03-07T03:05:51.839Z,-14
2023-03-07T03:06:57.129Z,-13
2023-03-07T03:08:03.419Z,-12
2023-03-07T03:09:09.676Z,-13
2023-03-07T03:10:15.948Z,-13
2023-03-07T03:11:22.224Z,-13
2023-03-07T03:12:28.499Z,-14
2023-03-07T03:13:34.763Z,-13
2023-03-07T03:14:41.032Z,-14
2023-03-07T03:15:47.310Z,-14
2023-03-07T03:16:53.585Z,-13
2023-03-07T03:17:59.862Z,-15
2023-03-07T03:19:06.128Z,-14
2023-03-07T03:20:12.402Z,-14
2023-03-07T03:21:17.727Z,-13
2023-03-07T03:22:23.957Z,-14
2023-03-07T03:23:30.234Z,-13
2023-03-07T03:24:36.506Z,-14
2023-03-07T03:25:42.796Z,-13
2023-03-07T03:26:49.049Z,-15
2023-03-07T03:27:55.323Z,-14
2023-03-07T03:29:00.623Z,-13
2023-03-07T03:30:06.897Z,-13
2023-03-07T03:31:13.165Z,-14
2023-03-07T03:32:19.435Z,-14
2023-03-07T03:33:25.708Z,-14
2023-03-07T03:34:32.005Z,-14
2023-03-07T03:35:38.295Z,-13
2023-03-07T03:36:44.520Z,-13
2023-03-07T03:37:50.814Z,-12
2023-03-07T03:38:57.067Z,-13
2023-03-07T03:40:03.336Z,-14
2023-03-07T03:41:08.649Z,-14
2023-03-07T03:42:13.925Z,-14
2023-03-07T03:43:20.200Z,-11
2023-03-07T03:44:25.496Z,-13
2023-03-07T03:45:30.788Z,-14
2023-03-07T03:46:37.062Z,-15
2023-03-07T03:47:43.330Z,-13
2023-03-07T03:48:49.604Z,-13
2023-03-07T03:49:55.880Z,-15
2023-03-07T03:51:02.152Z,-13
2023-03-07T03:52:08.421Z,-14
2023-03-07T03:53:14.735Z,-13
2023-03-07T03:54:20.962Z,-14
2023-03-07T03:55:27.234Z,-12
2023-03-07T03:56:33.510Z,-13
2023-03-07T03:57:39.780Z,-15
2023-03-07T03:58:46.074Z,-14
2023-03-07T03:59:51.362Z,-13
2023-03-07T04:00:57.614Z,-15
2023-03-07T04:02:03.888Z,-15
2023-03-07T04:03:10.181Z,-14
2023-03-07T04:04:16.433Z,-13
2023-03-07T04:05:22.701Z,-14
2023-03-07T04:06:28.995Z,-14
2023-03-07T04:07:34.277Z,-14
2023-03-07T04:08:39.572Z,-15
2023-03-07T04:09:45.942Z,-15
2023-03-07T04:10:52.107Z,-14
2023-03-07T04:11:58.368Z,-14
2023-03-07T04:13:04.647Z,-14
2023-03-07T04:14:10.934Z,-15
2023-03-07T04:15:17.209Z,-15
2023-03-07T04:16:23.467Z,-14
2023-03-07T04:17:29.742Z,-15
2023-03-07T04:18:36.021Z,-15
2023-03-07T04:19:42.304Z,-15
2023-03-07T04:20:48.556Z,-15
2023-03-07T04:21:54.845Z,-15
2023-03-07T04:23:00.114Z,-15
2023-03-07T04:24:06.398Z,-14
2023-03-07T04:25:12.665Z,-13
2023-03-07T04:26:18.965Z,-15
2023-03-07T04:27:25.210Z,-16
2023-03-07T04:28:31.472Z,-15
2023-03-07T04:29:37.738Z,-15
2023-03-07T04:30:43.049Z,-14
2023-03-07T04:31:48.333Z,-15
2023-03-07T04:32:54.608Z,-15
2023-03-07T04:34:00.955Z,-15
2023-03-07T04:35:07.157Z,-15
2023-03-07T04:36:13.428Z,-16
2023-03-07T04:37:19.705Z,-13
2023-03-07T04:38:25.974Z,-15
2023-03-07T04:39:32.245Z,-14
2023-03-07T04:40:38.511Z,-15
2023-03-07T04:41:44.792Z,-15
2023-03-07T04:42:51.067Z,-15
2023-03-07T04:43:57.341Z,-14
2023-03-07T04:45:03.608Z,-14
2023-03-07T04:46:08.889Z,-15
2023-03-07T04:47:15.204Z,-15
2023-03-07T04:48:21.446Z,-15
2023-03-07T04:49:27.710Z,-14
2023-03-07T04:50:34.006Z,-14
2023-03-07T04:51:40.261Z,-15
2023-03-07T04:52:46.527Z,-15
2023-03-07T04:53:51.865Z,-15
2023-03-07T04:54:57.126Z,-15
2023-03-07T04:56:03.398Z,-14
2023-03-07T04:57:09.770Z,-15
2023-03-07T04:58:15.936Z,-15
2023-03-07T04:59:22.220Z,-14
2023-03-07T05:00:28.484Z,-15
2023-03-07T05:01:34.750Z,-14
2023-03-07T05:02:41.019Z,-14
2023-03-07T05:03:47.296Z,-15
2023-03-07T05:04:53.576Z,-13
2023-03-07T05:05:59.845Z,-15
2023-03-07T05:07:06.119Z,-15
2023-03-07T05:08:12.386Z,-15
2023-03-07T05:09:17.697Z,-13
2023-03-07T05:10:23.958Z,-15
2023-03-07T05:11:30.223Z,-14
2023-03-07T05:12:36.491Z,-14
2023-03-07T05:13:42.764Z,-15
2023-03-07T05:14:49.039Z,-15
2023-03-07T05:15:55.321Z,-14
2023-03-07T05:17:00.613Z,-15
2023-03-07T05:18:05.905Z,-14
2023-03-07T05:19:11.193Z,-15
2023-03-07T05:20:16.512Z,-15
2023-03-07T05:21:21.777Z,-15
2023-03-07T05:22:27.071Z,-15
2023-03-07T05:23:33.338Z,-13
2023-03-07T05:24:39.632Z,-14
2023-03-07T05:25:44.924Z,-14
2023-03-07T05:26:51.190Z,-14
2023-03-07T05:27:56.482Z,-15
2023-03-07T05:29:02.746Z,-14
2023-03-07T05:30:09.015Z,-15
2023-03-07T05:31:15.295Z,-15
2023-03-07T05:32:21.573Z,-12
2023-03-07T05:33:27.833Z,-15
2023-03-07T05:34:34.105Z,-14
2023-03-07T05:35:40.383Z,-15
2023-03-07T05:36:46.652Z,-13
2023-03-07T05:37:52.929Z,-15
2023-03-07T05:38:59.203Z,-14
2023-03-07T05:40:05.482Z,-15
2023-03-07T05:41:11.746Z,-14
2023-03-07T05:42:17.028Z,-15
2023-03-07T05:43:23.307Z,-13
2023-03-07T05:44:29.576Z,-13
2023-03-07T05:45:35.853Z,-14
2023-03-07T05:46:42.133Z,-15
2023-03-07T05:47:48.406Z,-13
2023-03-07T05:48:53.718Z,-15
2023-03-07T05:49:58.989Z,-13
2023-03-07T05:51:04.310Z,-12
2023-03-07T05:52:09.582Z,-13
2023-03-07T05:53:15.859Z,-15
2023-03-07T05:54:22.138Z,-15
2023-03-07T05:55:28.408Z,-13
2023-03-07T05:56:34.689Z,-13
2023-03-07T05:57:40.940Z,-14
2023-03-07T05:58:47.213Z,-14
2023-03-07T05:59:53.468Z,-15
2023-03-07T06:00:59.760Z,-13
2023-03-07T06:02:06.031Z,-15
2023-03-07T06:03:12.300Z,-15
2023-03-07T06:04:18.583Z,-14
2023-03-07T06:05:24.847Z,-13
2023-03-07T06:06:30.134Z,-14
2023-03-07T06:07:36.403Z,-15
2023-03-07T06:08:42.672Z,-14
2023-03-07T06:09:48.963Z,-15
2023-03-07T06:10:55.221Z,-12
2023-03-07T06:12:01.495Z,-14
2023-03-07T06:13:07.766Z,-15
2023-03-07T06:14:13.061Z,-13
2023-03-07T06:15:18.362Z,-13
2023-03-07T06:16:24.628Z,-14
2023-03-07T06:17:29.926Z,-14
2023-03-07T06:18:35.223Z,-14
2023-03-07T06:19:41.488Z,-14
2023-03-07T06:20:47.770Z,-13
2023-03-07T06:21:54.044Z,-15
2023-03-07T06:23:00.311Z,-14
2023-03-07T06:24:06.571Z,-14
2023-03-07T06:25:12.856Z,-15
2023-03-07T06:26:19.117Z,-13
2023-03-07T06:27:25.396Z,-15
2023-03-07T06:28:31.668Z,-14
2023-03-07T06:29:37.940Z,-13
2023-03-07T06:30:44.211Z,-14
2023-03-07T06:31:50.488Z,-16
2023-03-07T06:32:55.771Z,-14
2023-03-07T06:34:02.071Z,-13
2023-03-07T06:35:08.331Z,-13
2023-03-07T06:36:14.595Z,-14
2023-03-07T06:37:20.864Z,-14
2023-03-07T06:38:27.138Z,-14
2023-03-07T06:39:33.412Z,-13
2023-03-07T06:40:38.708Z,-12
2023-03-07T06:41:44.990Z,-12
2023-03-07T06:42:50.270Z,-14
2023-03-07T06:43:55.570Z,-12
2023-03-07T06:45:00.887Z,-13
2023-03-07T06:46:07.148Z,-13
2023-03-07T06:47:13.404Z,-13
2023-03-07T06:48:19.674Z,-13
2023-03-07T06:49:25.947Z,-14
2023-03-07T06:50:32.217Z,-15
2023-03-07T06:51:38.490Z,-12
2023-03-07T06:52:44.779Z,-14
2023-03-07T06:53:51.037Z,-13
2023-03-07T06:54:57.316Z,-12
2023-03-07T06:56:03.639Z,-13
2023-03-07T06:57:09.858Z,-13
2023-03-07T06:58:16.160Z,-13
2023-03-07T06:59:22.413Z,-13
2023-03-07T07:00:27.742Z,-13
2023-03-07T07:01:34.011Z,-11
2023-03-07T07:02:40.229Z,-15
2023-03-07T07:03:46.508Z,-12
2023-03-07T07:04:52.796Z,-12
2023-03-07T07:05:59.063Z,-12
2023-03-07T07:07:04.351Z,-13
2023-03-07T07:08:09.646Z,-12
2023-03-07T07:09:14.939Z,-12
2023-03-07T07:10:20.240Z,-13
2023-03-07T07:11:26.517Z,-10
2023-03-07T07:12:32.806Z,-12
2023-03-07T07:13:39.104Z,-12
2023-03-07T07:14:45.323Z,-12
2023-03-07T07:15:51.596Z,-12
2023-03-07T07:16:57.867Z,-12
2023-03-07T07:18:04.158Z,-12
2023-03-07T07:19:10.405Z,-12
2023-03-07T07:20:16.686Z,-12
2023-03-07T07:21:22.958Z,-12
2023-03-07T07:22:29.220Z,-11
2023-03-07T07:23:35.498Z,-12
2023-03-07T07:24:40.888Z,-12
2023-03-07T07:25:47.057Z,-12
2023-03-07T07:26:53.362Z,-12
2023-03-07T07:27:59.603Z,-12
2023-03-07T07:29:05.881Z,-11
2023-03-07T07:30:12.172Z,-12
2023-03-07T07:31:18.426Z,-12
2023-03-07T07:32:23.719Z,-12
2023-03-07T07:33:29.020Z,-12
2023-03-07T07:34:34.360Z,-12
2023-03-07T07:35:39.586Z,-12
2023-03-07T07:36:45.926Z,-12
2023-03-07T07:37:52.140Z,-11
2023-03-07T07:38:58.431Z,-11
2023-03-07T07:40:04.684Z,-12
2023-03-07T07:41:10.963Z,-12
2023-03-07T07:42:17.238Z,-12
2023-03-07T07:43:23.521Z,-12
2023-03-07T07:44:29.804Z,-9
2023-03-07T07:45:36.169Z,-12
2023-03-07T07:46:42.348Z,-10
2023-03-07T07:47:48.677Z,-11
2023-03-07T07:48:54.878Z,-10
2023-03-07T07:50:01.220Z,-13
2023-03-07T07:51:06.440Z,-10
2023-03-07T07:52:12.724Z,-10
2023-03-07T07:53:19.059Z,-9
2023-03-07T07:54:25.250Z,-10
2023-03-07T07:55:31.518Z,-10
2023-03-07T07:56:37.801Z,-10
2023-03-07T07:57:44.089Z,-9
2023-03-07T07:58:49.364Z,-11
2023-03-07T07:59:54.669Z,-10
2023-03-07T08:01:00.939Z,-10
2023-03-07T08:02:07.424Z,-9
2023-03-07T08:03:12.665Z,-9
2023-03-07T08:04:17.873Z,-9
2023-03-07T08:05:24.094Z,-10
2023-03-07T08:06:30.325Z,-9
2023-03-07T08:07:36.612Z,-9
2023-03-07T08:08:42.945Z,-9
2023-03-07T08:09:49.207Z,-9
2023-03-07T08:10:55.452Z,-10
2023-03-07T08:12:01.777Z,-10
2023-03-07T08:13:08.032Z,-10
2023-03-07T08:14:14.253Z,-10
2023-03-07T08:15:20.607Z,-9
2023-03-07T08:16:26.919Z,-10
2023-03-07T08:17:33.054Z,-9
2023-03-07T08:18:38.453Z,-10
2023-03-07T08:19:44.651Z,-9
2023-03-07T08:20:50.958Z,-11
2023-03-07T08:21:57.163Z,-10
2023-03-07T08:23:03.422Z,-10
2023-03-07T08:24:09.701Z,-9
2023-03-07T08:25:15.995Z,-9
2023-03-07T08:26:21.272Z,-10
2023-03-07T08:27:26.566Z,-12
2023-03-07T08:28:31.860Z,-9
2023-03-07T08:29:37.149Z,-10
2023-03-07T08:30:43.434Z,-9
2023-03-07T08:31:49.796Z,-10
2023-03-07T08:32:55.985Z,-9
2023-03-07T08:34:02.295Z,-9
2023-03-07T08:35:08.598Z,-9
2023-03-07T08:36:14.824Z,-11
2023-03-07T08:37:21.093Z,-9
2023-03-07T08:38:27.319Z,-10
2023-03-07T08:39:33.625Z,-9
2023-03-07T08:40:39.871Z,-10
2023-03-07T08:41:46.166Z,-11
2023-03-07T08:42:52.410Z,-11
2023-03-07T08:43:58.700Z,-10
2023-03-07T08:45:04.957Z,-9
2023-03-07T08:46:11.225Z,-8
2023-03-07T08:47:16.519Z,-11
2023-03-07T08:48:22.793Z,-9
2023-03-07T08:49:29.088Z,-11
2023-03-07T08:50:35.322Z,-9
2023-03-07T08:51:40.650Z,-9
2023-03-07T08:52:45.917Z,-7
2023-03-07T08:53:51.235Z,-5
2023-03-07T08:54:56.496Z,-8
2023-03-07T08:56:02.769Z,-8
2023-03-07T08:57:09.046Z,-7
2023-03-07T08:58:15.309Z,-6
2023-03-07T08:59:21.593Z,-6
2023-03-07T09:00:27.877Z,-9
2023-03-07T09:01:34.135Z,-7
2023-03-07T09:02:40.414Z,-8
2023-03-07T09:03:46.715Z,-7
2023-03-07T09:04:52.953Z,-7
2023-03-07T09:05:59.232Z,-8
2023-03-07T09:07:05.488Z,-6
2023-03-07T09:08:11.899Z,-7
2023-03-07T09:09:17.100Z,-7
2023-03-07T09:10:23.325Z,-7
2023-03-07T09:11:29.608Z,-5
2023-03-07T09:12:35.865Z,-6
2023-03-07T09:13:42.132Z,-7
2023-03-07T09:14:48.413Z,-6
2023-03-07T09:15:54.682Z,-8
2023-03-07T09:16:59.977Z,-6
2023-03-07T09:18:05.277Z,-6
2023-03-07T09:19:10.566Z,-7
2023-03-07T09:20:15.858Z,-7
2023-03-07T09:21:22.138Z,-8
2023-03-07T09:22:28.407Z,-6
2023-03-07T09:23:34.683Z,-7
2023-03-07T09:24:40.946Z,-6
2023-03-07T09:25:47.227Z,-7
2023-03-07T09:26:53.497Z,-7
2023-03-07T09:27:59.764Z,-6
2023-03-07T09:29:06.035Z,-6
2023-03-07T09:30:12.309Z,-6
2023-03-07T09:31:18.570Z,-6
2023-03-07T09:32:24.845Z,-6
2023-03-07T09:33:31.125Z,-6
2023-03-07T09:34:36.416Z,-6
2023-03-07T09:35:42.700Z,-6
2023-03-07T09:36:48.973Z,-6
2023-03-07T09:37:55.357Z,-6
2023-03-07T09:39:01.497Z,-7
2023-03-07T09:40:07.781Z,-6
2023-03-07T09:41:14.048Z,-6
2023-03-07T09:42:19.337Z,-6
2023-03-07T09:43:25.620Z,-6
2023-03-07T09:44:30.902Z,-6
2023-03-07T09:45:36.206Z,-7
2023-03-07T09:46:41.490Z,-6
2023-03-07T09:48:54.148Z,-6
2023-03-07T09:50:00.324Z,-8
2023-03-07T09:51:06.580Z,-6
2023-03-07T09:52:12.866Z,-6
2023-03-07T09:53:19.122Z,-6
2023-03-07T09:54:25.388Z,-6
2023-03-07T09:55:31.669Z,-7
2023-03-07T09:56:37.925Z,-6
2023-03-07T09:57:44.216Z,-5
2023-03-07T09:58:50.504Z,-7
2023-03-07T09:59:56.748Z,-5
2023-03-07T10:01:02.132Z,-6
2023-03-07T10:02:08.307Z,-6
2023-03-07T10:03:14.580Z,-4
2023-03-07T10:04:20.853Z,-6
2023-03-07T10:05:27.131Z,-5
2023-03-07T10:06:33.398Z,-4
2023-03-07T10:07:39.702Z,-4
2023-03-07T10:08:45.954Z,-4
2023-03-07T10:09:52.213Z,-3
2023-03-07T10:10:57.527Z,-3
2023-03-07T10:12:02.800Z,-3
2023-03-07T10:13:08.108Z,-3
2023-03-07T10:14:14.405Z,-3
2023-03-07T10:15:19.671Z,-3
2023-03-07T10:16:26.019Z,-4
2023-03-07T10:17:32.215Z,-4
2023-03-07T10:18:38.535Z,-4
2023-03-07T10:19:44.760Z,-3
2023-03-07T10:21:57.296Z,-3
2023-03-07T10:23:03.562Z,-3
2023-03-07T10:24:09.843Z,-3
2023-03-07T10:25:16.106Z,-3
2023-03-07T10:26:22.387Z,-1
2023-03-07T10:27:28.659Z,-2
2023-03-07T10:28:34.921Z,-2
2023-03-07T10:29:40.210Z,-1
2023-03-07T10:30:46.479Z,-1
2023-03-07T10:31:52.760Z,0
2023-03-07T10:32:59.034Z,-1
2023-03-07T10:34:05.298Z,0
2023-03-07T10:35:11.580Z,0
2023-03-07T10:36:17.845Z,0
2023-03-07T10:37:24.195Z,0
2023-03-07T10:38:30.383Z,0
2023-03-07T10:39:36.701Z,-1
2023-03-07T10:40:42.943Z,-1
2023-03-07T10:41:49.197Z,-2
2023-03-07T10:42:55.469Z,0
2023-03-07T10:44:01.776Z,0
2023-03-07T10:45:08.079Z,-1
2023-03-07T10:46:13.306Z,-1
2023-03-07T10:47:18.597Z,0
2023-03-07T10:48:23.886Z,0
2023-03-07T10:49:29.290Z,-1
2023-03-07T10:50:35.477Z,0
2023-03-07T10:51:40.745Z,0
2023-03-07T10:52:47.013Z,-1
2023-03-07T10:53:53.284Z,0
2023-03-07T10:54:59.562Z,0
2023-03-07T10:56:05.831Z,-2
2023-03-07T10:57:12.100Z,-2
2023-03-07T10:58:18.375Z,0
2023-03-07T10:59:24.652Z,-2
2023-03-07T11:00:30.923Z,-2
2023-03-07T11:01:37.234Z,-1
2023-03-07T11:02:43.482Z,-3
2023-03-07T11:03:49.733Z,-2
2023-03-07T11:04:56.104Z,-3
2023-03-07T11:06:01.291Z,0
2023-03-07T11:07:07.595Z,-2
2023-03-07T11:08:14.066Z,0
2023-03-07T11:09:20.115Z,0
2023-03-07T11:10:26.394Z,0
2023-03-07T11:11:31.702Z,0
2023-03-07T11:12:36.968Z,0
2023-03-07T11:13:42.274Z,0
2023-03-07T11:14:47.668Z,0
2023-03-07T11:15:53.826Z,0
2023-03-07T11:17:00.165Z,0
2023-03-07T11:18:06.375Z,0
2023-03-07T11:19:12.642Z,0
2023-03-07T11:20:18.904Z,0
2023-03-07T11:21:25.265Z,0
2023-03-07T11:22:31.624Z,0
2023-03-07T11:23:37.726Z,0
2023-03-07T11:24:44.137Z,0
2023-03-07T11:25:50.310Z,0
2023-03-07T11:26:56.553Z,2
2023-03-07T11:28:02.874Z,2
2023-03-07T11:29:08.096Z,1
2023-03-07T11:30:14.384Z,1
2023-03-07T11:31:20.647Z,1
2023-03-07T11:32:26.929Z,2
2023-03-07T11:33:33.180Z,3
2023-03-07T11:34:39.452Z,1
2023-03-07T11:35:45.766Z,1
2023-03-07T11:36:51.028Z,2
2023-03-07T11:37:56.310Z,0
2023-03-07T11:39:02.727Z,1
2023-03-07T11:40:08.886Z,2
2023-03-07T11:41:15.129Z,1
2023-03-07T11:42:20.440Z,0
2023-03-07T11:43:25.723Z,0
2023-03-07T11:44:32.007Z,0
2023-03-07T11:45:38.260Z,0
2023-03-07T11:46:44.535Z,0
2023-03-07T11:47:50.806Z,0
2023-03-07T11:48:57.083Z,2
2023-03-07T11:50:03.350Z,1
2023-03-07T11:51:09.614Z,0
2023-03-07T11:52:15.896Z,1
2023-03-07T11:53:22.164Z,0
2023-03-07T11:54:28.437Z,0
2023-03-07T11:55:34.710Z,1
2023-03-07T11:56:40.982Z,1
2023-03-07T11:57:46.263Z,0
2023-03-07T11:58:52.540Z,1
2023-03-07T11:59:58.834Z,1
2023-03-07T12:01:05.081Z,3
2023-03-07T12:02:11.352Z,1
2023-03-07T12:03:17.628Z,3
2023-03-07T12:04:23.900Z,1
2023-03-07T12:05:29.199Z,2
2023-03-07T12:06:34.489Z,1
2023-03-07T12:07:39.803Z,1
2023-03-07T12:08:45.135Z,2
2023-03-07T12:09:51.348Z,2
2023-03-07T12:10:57.622Z,2
2023-03-07T12:12:03.887Z,2
2023-03-07T12:13:10.158Z,1
2023-03-07T12:14:16.448Z,2
2023-03-07T12:15:22.697Z,3
2023-03-07T12:16:28.969Z,3
2023-03-07T12:17:35.254Z,3
2023-03-07T12:18:41.515Z,0
2023-03-07T12:19:47.800Z,3
2023-03-07T12:20:54.078Z,3
2023-03-07T12:22:00.392Z,2
2023-03-07T12:23:05.639Z,3
2023-03-07T12:24:11.894Z,3
2023-03-07T12:25:18.158Z,1
2023-03-07T12:26:24.472Z,2
2023-03-07T12:27:30.717Z,4
2023-03-07T12:28:36.981Z,3
2023-03-07T12:29:43.252Z,3
2023-03-07T12:30:48.553Z,3
2023-03-07T12:31:54.020Z,3
2023-03-07T12:33:00.257Z,5
2023-03-07T12:34:06.480Z,3
2023-03-07T12:35:11.691Z,4
2023-03-07T12:36:17.048Z,3
2023-03-07T12:37:23.239Z,3
2023-03-07T12:38:29.516Z,3
2023-03-07T12:39:35.827Z,2
2023-03-07T12:40:42.058Z,2
2023-03-07T12:41:48.359Z,0
2023-03-07T12:42:54.595Z,2
2023-03-07T12:44:00.873Z,1
2023-03-07T12:45:07.189Z,0
2023-03-07T12:46:13.639Z,2
2023-03-07T12:47:19.838Z,0
2023-03-07T12:48:26.001Z,2
2023-03-07T12:49:32.261Z,2
2023-03-07T12:50:37.510Z,4
2023-03-07T12:51:43.839Z,3
2023-03-07T12:52:50.176Z,3
2023-03-07T12:53:56.418Z,3
2023-03-07T12:55:02.612Z,3
2023-03-07T12:56:08.875Z,4
2023-03-07T12:57:15.150Z,5
2023-03-07T12:58:20.438Z,6
2023-03-07T12:59:25.763Z,6
2023-03-07T13:00:32.050Z,6
2023-03-07T13:01:37.331Z,6
2023-03-07T13:02:43.631Z,6
2023-03-07T13:03:48.854Z,6
2023-03-07T13:04:55.195Z,7
2023-03-07T13:06:01.421Z,7
2023-03-07T13:07:07.669Z,6
2023-03-07T13:08:14.122Z,6
2023-03-07T13:09:20.278Z,7
2023-03-07T13:10:26.516Z,6
2023-03-07T13:11:32.896Z,6
2023-03-07T13:12:39.202Z,3
2023-03-07T13:13:45.462Z,6
2023-03-07T13:14:51.699Z,6
2023-03-07T13:15:57.947Z,6
2023-03-07T13:17:04.112Z,7
2023-03-07T13:18:09.393Z,6
2023-03-07T13:19:15.667Z,6
2023-03-07T13:20:21.972Z,6
2023-03-07T13:21:28.217Z,6
2023-03-07T13:22:34.492Z,6
2023-03-07T13:23:40.758Z,6
2023-03-07T13:24:46.049Z,6
2023-03-07T13:25:51.339Z,6
2023-03-07T13:26:56.650Z,7
2023-03-07T13:28:01.925Z,7
2023-03-07T13:29:08.189Z,7
2023-03-07T13:30:14.458Z,8
2023-03-07T13:31:20.769Z,8
2023-03-07T13:32:27.006Z,9
2023-03-07T13:33:33.285Z,7
2023-03-07T13:34:39.578Z,8
2023-03-07T13:35:45.929Z,7
2023-03-07T13:36:52.235Z,6
2023-03-07T13:37:58.473Z,6
2023-03-07T13:39:04.691Z,6
2023-03-07T13:40:10.909Z,7
2023-03-07T13:41:17.287Z,6
2023-03-07T13:42:23.452Z,6
2023-03-07T13:43:28.843Z,5
2023-03-07T13:44:35.131Z,5
2023-03-07T13:45:41.351Z,5
2023-03-07T13:46:47.585Z,6
2023-03-07T13:47:53.889Z,6
2023-03-07T13:49:00.229Z,5
2023-03-07T13:50:05.421Z,5
2023-03-07T13:51:10.791Z,6
2023-03-07T13:52:17.012Z,6
2023-03-07T13:53:22.261Z,5
2023-03-07T13:54:27.540Z,4
2023-03-07T13:55:33.864Z,5
2023-03-07T13:56:40.093Z,5
2023-03-07T13:57:46.392Z,3
2023-03-07T13:58:52.634Z,6
2023-03-07T13:59:58.918Z,3
2023-03-07T14:01:05.182Z,5
2023-03-07T14:02:11.487Z,4
2023-03-07T14:03:17.909Z,3
2023-03-07T14:04:24.183Z,4
2023-03-07T14:05:30.401Z,5
2023-03-07T14:06:36.731Z,3
2023-03-07T14:07:42.816Z,4
2023-03-07T14:08:48.221Z,4
2023-03-07T14:09:54.468Z,5
2023-03-07T14:11:00.643Z,7
2023-03-07T14:12:06.969Z,5
2023-03-07T14:13:13.189Z,5
2023-03-07T14:14:19.451Z,4
2023-03-07T14:15:25.855Z,6
2023-03-07T14:16:32.005Z,4
2023-03-07T14:17:37.296Z,5
2023-03-07T14:18:42.609Z,5
2023-03-07T14:19:48.861Z,5
2023-03-07T14:20:55.163Z,3
2023-03-07T14:22:01.434Z,5
2023-03-07T14:23:07.732Z,5
2023-03-07T14:24:13.976Z,4
2023-03-07T14:25:20.361Z,3
2023-03-07T14:26:26.506Z,4
2023-03-07T14:27:32.870Z,3
2023-03-07T14:28:39.096Z,3
2023-03-07T14:29:45.302Z,3
2023-03-07T14:30:51.590Z,4
2023-03-07T14:31:57.874Z,5
2023-03-07T14:33:03.193Z,4
2023-03-07T14:34:09.420Z,4
2023-03-07T14:35:15.690Z,3
2023-03-07T14:36:22.006Z,2
2023-03-07T14:37:28.261Z,3
2023-03-07T14:38:34.572Z,3
2023-03-07T14:39:40.809Z,3
2023-03-07T14:40:46.159Z,3
2023-03-07T14:41:51.440Z,3
2023-03-07T14:42:56.682Z,3
2023-03-07T14:44:01.943Z,3
2023-03-07T14:45:07.284Z,3
2023-03-07T14:46:12.606Z,3
2023-03-07T14:47:18.872Z,2
2023-03-07T14:48:25.097Z,3
2023-03-07T14:49:31.436Z,3
2023-03-07T14:50:37.739Z,3
2023-03-07T14:51:43.925Z,2
2023-03-07T14:52:50.172Z,2
2023-03-07T14:53:56.490Z,2
2023-03-07T14:55:02.695Z,3
2023-03-07T14:56:09.051Z,2
2023-03-07T14:57:15.238Z,0
2023-03-07T14:58:21.514Z,2
2023-03-07T14:59:27.793Z,1
2023-03-07T15:00:33.120Z,2
2023-03-07T15:01:39.359Z,1
2023-03-07T15:02:45.621Z,2
2023-03-07T15:03:51.903Z,2
2023-03-07T15:04:58.185Z,2
2023-03-07T15:06:04.518Z,2
2023-03-07T15:07:10.699Z,0
2023-03-07T15:08:16.007Z,1
2023-03-07T15:09:21.287Z,3
2023-03-07T15:10:26.584Z,0
2023-03-07T15:11:31.871Z,2
2023-03-07T15:12:38.141Z,2
2023-03-07T15:13:44.410Z,2
2023-03-07T15:14:50.685Z,1
2023-03-07T15:15:56.957Z,0
2023-03-07T15:17:03.236Z,0
2023-03-07T15:18:09.498Z,0
2023-03-07T15:19:15.774Z,1
2023-03-07T15:20:22.063Z,1
2023-03-07T15:21:28.325Z,1
2023-03-07T15:22:34.596Z,2
2023-03-07T15:23:40.869Z,0
2023-03-07T15:24:47.219Z,0
2023-03-07T15:25:52.444Z,2
2023-03-07T15:26:58.702Z,1
2023-03-07T15:28:04.969Z,0
2023-03-07T15:29:11.343Z,0
2023-03-07T15:30:17.514Z,3
2023-03-07T15:31:23.792Z,0
2023-03-07T15:32:30.067Z,0
2023-03-07T15:33:35.360Z,1
2023-03-07T15:34:40.726Z,0
2023-03-07T15:35:46.964Z,0
2023-03-07T15:36:53.240Z,1